Date,TemperatureHighF,TemperatureAvgF,TemperatureLowF,DewpointHighF,DewpointAvgF,DewpointLowF,HumidityHigh,HumidityAvg,HumidityLow,PressureMaxIn,PressureMinIn,WindSpeedMaxMPH,WindSpeedAvgMPH,GustSpeedMaxMPH,PrecipitationSumIn
2013-4-1,69.0,57.9,51.5,53.6,51.1,48.2,93,79,50,30.22,30.12,12,0,12,0.00
2013-4-2,72.5,58.9,50.1,54.9,51.5,48.6,97,78,51,30.15,30.03,12,0,12,0.00
2013-4-3,78.3,62.5,51.3,57.9,53.8,49.3,96,76,42,30.14,30.02,11,1,13,0.00
2013-4-4,75.2,62.2,55.1,55.9,53.9,52.1,92,76,47,30.15,30.05,11,0,11,0.00
2013-4-5,70.8,60.2,54.3,56.8,54.8,51.8,95,83,60,30.14,30.05,12,1,12,0.00
2013-4-6,71.9,60.4,53.5,56.1,53.6,50.6,93,79,57,30.13,30.01,14,1,14,0.00
2013-4-7,73.7,59.9,51.5,56.2,53.1,49.5,95,80,51,30.03,29.86,12,0,12,0.00
2013-4-8,70.0,60.6,54.1,54.0,43.3,32.0,93,58,27,29.88,29.68,18,2,18,0.00
2013-4-9,76.2,62.9,50.3,43.0,34.2,19.2,66,37,12,30.04,29.86,18,1,18,0.00
2013-4-10,82.3,64.6,48.7,45.1,35.9,25.2,73,40,13,30.14,30.02,14,1,14,0.00
2013-4-11,76.5,61.8,51.4,53.4,45.7,33.4,87,59,23,30.05,29.83,14,1,14,0.00
2013-4-12,75.8,60.8,52.3,55.2,52.1,49.5,92,75,46,29.94,29.82,14,0,14,0.00
2013-4-13,61.4,56.5,52.9,54.9,53.0,50.5,93,88,78,29.96,29.89,8,0,8,0.00
2013-4-14,61.2,56.1,53.0,52.7,50.5,48.4,91,82,69,29.94,29.87,8,0,8,0.00
2013-4-15,64.1,56.4,53.9,56.7,50.6,46.6,94,81,66,29.96,29.89,12,1,12,0.02
2013-4-16,65.4,56.3,49.1,49.2,42.7,28.8,86,63,35,30.03,29.92,17,1,17,0.00
2013-4-17,75.0,60.7,50.3,38.7,28.1,14.8,63,32,11,30.17,30.03,16,1,16,0.00
2013-4-18,81.3,64.8,50.6,38.5,24.9,14.1,57,26,9,30.24,30.14,13,1,13,0.00
2013-4-19,87.8,69.0,52.2,41.6,27.1,14.9,56,25,7,30.19,30.01,15,1,15,0.00
2013-4-20,86.2,67.5,50.5,53.2,46.8,39.6,89,51,21,30.04,29.91,15,1,15,0.00
2013-4-21,80.5,64.3,53.1,57.3,51.8,44.7,93,68,30,30.05,29.98,12,1,12,0.00
2013-4-22,75.3,61.4,54.6,54.2,52.5,49.9,93,75,44,30.05,29.94,13,1,13,0.00
2013-4-23,78.3,61.8,55.1,54.1,51.7,49.6,89,72,42,30.02,29.89,11,1,11,0.00
2013-4-24,61.3,58.4,55.9,54.7,52.3,48.8,89,80,65,30.04,29.94,7,0,10,0.00
2013-4-25,72.0,60.6,52.6,53.6,51.2,47.9,92,73,44,30.16,30.01,13,0,13,0.00
2013-4-26,80.0,62.5,48.6,54.2,51.0,47.0,96,70,38,30.20,30.13,11,1,11,0.00
2013-4-27,80.5,64.5,51.5,59.4,53.5,48.5,92,70,41,30.20,30.03,12,0,12,0.00
2013-4-28,79.5,64.5,55.2,59.8,56.1,52.6,93,76,50,30.07,29.90,7,1,11,0.00
2013-4-29,73.7,62.0,56.5,58.2,55.3,53.3,94,80,56,29.95,29.83,13,1,13,0.00
2013-4-30,68.4,60.2,56.2,56.6,53.6,52.2,88,79,63,29.95,29.87,10,1,16,0.00